Time,TemperatureF,DewpointF,PressureIn,WindDirection,WindDirectionDegrees,WindSpeedMPH,WindSpeedGustMPH,Humidity,HourlyPrecipIn,Conditions,Clouds,dailyrainin,SoftwareType,DateUTC
2013-04-19 00:02:00,58.9,57.2,29.82,WNW,292,2.7,4.9,94,0.21,,---,0.00,VWS V14.01,2013-04-19 05:02:00,
2013-04-19 00:07:00,58.6,56.8,29.82,NNW,338,2.7,3.1,94,0.16,,---,0.00,VWS V14.01,2013-04-19 05:07:00,
2013-04-19 00:12:00,58.4,56.4,29.82,NNW,338,3.4,4.0,93,0.20,,---,0.04,VWS V14.01,2013-04-19 05:12:00,
2013-04-19 00:17:00,58.0,56.3,29.82,NNW,338,7.6,7.6,94,0.20,,---,0.04,VWS V14.01,2013-04-19 05:17:00,
2013-04-19 00:22:00,57.7,56.0,29.82,NNW,338,5.8,5.8,94,0.20,,---,0.04,VWS V14.01,2013-04-19 05:22:00,
2013-04-19 00:27:00,56.9,54.6,29.82,North,0,3.6,3.6,92,0.16,,---,0.04,VWS V14.01,2013-04-19 05:27:00,
2013-04-19 00:32:00,56.6,54.6,29.82,NNW,338,5.8,5.8,93,0.16,,---,0.08,VWS V14.01,2013-04-19 05:32:00,
2013-04-19 00:37:00,56.0,54.3,29.82,NNW,338,2.5,2.5,94,0.17,,---,0.13,VWS V14.01,2013-04-19 05:37:00,
2013-04-19 00:42:00,55.5,53.8,29.82,ENE,68,1.1,4.9,94,0.17,,---,0.17,VWS V14.01,2013-04-19 05:42:00,
2013-04-19 00:47:00,55.1,53.7,29.82,NNW,338,4.9,4.9,95,0.17,,---,0.17,VWS V14.01,2013-04-19 05:47:00,
2013-04-19 00:52:00,54.8,53.4,29.82,NW,315,3.6,4.3,95,0.17,,---,0.17,VWS V14.01,2013-04-19 05:52:00,
2013-04-19 00:57:00,54.8,53.4,29.82,West,270,1.6,1.6,95,0.17,,---,0.17,VWS V14.01,2013-04-19 05:57:00,
2013-04-19 01:02:00,54.4,53.3,29.85,NNW,338,2.9,2.9,96,0.21,,---,0.21,VWS V14.01,2013-04-19 06:02:00,
2013-04-19 01:07:00,54.4,53.3,29.85,WNW,292,0.0,2.5,96,0.25,,---,0.25,VWS V14.01,2013-04-19 06:07:00,
2013-04-19 01:12:00,54.1,53.0,29.85,NNW,338,2.0,2.7,96,0.21,,---,0.25,VWS V14.01,2013-04-19 06:12:00,
2013-04-19 01:17:00,54.2,53.4,29.85,NNE,22,0.0,0.0,97,0.21,,---,0.25,VWS V14.01,2013-04-19 06:17:00,
2013-04-19 01:22:00,54.1,53.2,29.85,NNW,338,3.6,3.6,97,0.21,,---,0.25,VWS V14.01,2013-04-19 06:22:00,
2013-04-19 01:27:00,54.1,53.2,29.85,NNW,338,3.4,3.4,97,0.21,,---,0.25,VWS V14.01,2013-04-19 06:27:00,
2013-04-19 01:32:00,54.1,53.2,29.85,NNW,338,0.0,2.0,97,0.17,,---,0.25,VWS V14.01,2013-04-19 06:32:00,
2013-04-19 01:37:00,53.9,53.0,29.85,WNW,292,3.8,3.8,97,0.16,,---,0.29,VWS V14.01,2013-04-19 06:37:00,
2013-04-19 01:42:00,53.9,53.0,29.85,WNW,292,4.3,5.4,97,0.12,,---,0.29,VWS V14.01,2013-04-19 06:42:00,
2013-04-19 01:47:00,53.7,52.9,29.85,WNW,292,3.1,3.1,97,0.12,,---,0.29,VWS V14.01,2013-04-19 06:47:00,
2013-04-19 01:52:00,53.7,52.9,29.85,NNW,338,0.0,2.5,97,0.16,,---,0.33,VWS V14.01,2013-04-19 06:52:00,
2013-04-19 01:57:00,53.5,52.7,29.85,NW,315,4.3,4.3,97,0.16,,---,0.33,VWS V14.01,2013-04-19 06:57:00,
2013-04-19 02:02:00,53.3,52.5,29.88,NNW,338,4.7,4.7,97,0.12,,---,0.33,VWS V14.01,2013-04-19 07:02:00,
2013-04-19 02:07:00,53.3,52.5,29.88,NNW,338,3.6,3.6,97,0.08,,---,0.33,VWS V14.01,2013-04-19 07:07:00,
2013-04-19 02:12:00,53.0,52.2,29.88,WNW,292,3.1,4.0,97,0.08,,---,0.33,VWS V14.01,2013-04-19 07:12:00,
2013-04-19 02:17:00,52.8,51.7,29.85,West,270,5.8,7.4,96,0.08,,---,0.33,VWS V14.01,2013-04-19 07:17:00,
2013-04-19 02:22:00,52.3,50.9,29.85,NNE,22,3.6,7.4,95,0.08,,---,0.33,VWS V14.01,2013-04-19 07:22:00,
2013-04-19 02:27:00,52.1,50.4,29.85,NNE,22,3.1,3.6,94,0.08,,---,0.33,VWS V14.01,2013-04-19 07:27:00,
2013-04-19 02:32:00,51.5,49.9,29.88,WNW,292,7.2,7.2,94,0.08,,---,0.33,VWS V14.01,2013-04-19 07:32:00,
2013-04-19 02:37:00,51.4,49.7,29.88,WNW,292,2.7,2.7,94,0.04,,---,0.33,VWS V14.01,2013-04-19 07:37:00,
2013-04-19 02:42:00,51.2,49.5,29.88,NNW,338,2.7,3.1,94,0.04,,---,0.33,VWS V14.01,2013-04-19 07:42:00,
2013-04-19 02:47:00,51.0,49.3,29.88,WNW,292,3.6,3.6,94,0.04,,---,0.33,VWS V14.01,2013-04-19 07:47:00,
2013-04-19 02:52:00,50.8,49.4,29.88,WNW,292,4.3,5.8,95,0.04,,---,0.33,VWS V14.01,2013-04-19 07:52:00,
2013-04-19 02:57:00,50.6,49.3,29.88,WNW,292,10.1,10.1,95,0.00,,---,0.00,VWS V14.01,2013-04-19 07:57:00,
2013-04-19 03:02:00,50.5,49.1,29.91,North,0,7.2,7.2,95,0.00,,---,0.33,VWS V14.01,2013-04-19 08:02:00,
2013-04-19 03:07:00,50.5,49.4,29.91,NNW,338,3.8,3.8,96,0.00,,---,0.33,VWS V14.01,2013-04-19 08:07:00,
2013-04-19 03:12:00,49.9,48.5,29.88,WNW,292,4.9,5.6,95,0.00,,---,0.33,VWS V14.01,2013-04-19 08:12:00,
2013-04-19 03:17:00,49.9,48.3,29.88,WNW,292,7.2,7.2,94,0.00,,---,0.33,VWS V14.01,2013-04-19 08:17:00,
2013-04-19 03:22:00,49.6,47.3,29.88,NW,315,5.4,5.4,92,0.00,,---,0.33,VWS V14.01,2013-04-19 08:22:00,
2013-04-19 03:27:00,49.4,46.9,29.91,North,0,4.0,4.0,91,0.00,,---,0.33,VWS V14.01,2013-04-19 08:27:00,
2013-04-19 03:32:00,49.2,46.7,29.91,NNW,338,3.1,3.1,91,0.00,,---,0.33,VWS V14.01,2013-04-19 08:32:00,
2013-04-19 03:37:00,49.0,46.8,29.91,NNE,22,4.9,4.9,92,0.00,,---,0.33,VWS V14.01,2013-04-19 08:37:00,
2013-04-19 03:42:00,49.0,46.8,29.91,NW,315,2.9,2.9,92,0.00,,---,0.33,VWS V14.01,2013-04-19 08:42:00,
2013-04-19 03:47:00,49.0,47.1,29.91,NNW,338,4.7,7.6,93,0.00,,---,0.33,VWS V14.01,2013-04-19 08:47:00,
2013-04-19 03:52:00,49.0,47.1,29.91,NNW,338,4.0,4.0,93,0.00,,---,0.33,VWS V14.01,2013-04-19 08:52:00,
2013-04-19 03:58:00,49.0,47.4,29.91,NNE,22,1.1,2.9,94,0.00,,---,0.33,VWS V14.01,2013-04-19 08:58:00,
2013-04-19 04:03:00,49.0,47.4,29.91,NW,315,2.7,5.4,94,0.00,,---,0.33,VWS V14.01,2013-04-19 09:03:00,
2013-04-19 04:08:00,48.8,47.2,29.91,NNW,338,4.9,7.8,94,0.00,,---,0.33,VWS V14.01,2013-04-19 09:08:00,
2013-04-19 04:13:00,48.8,46.9,29.91,NNW,338,4.9,4.9,93,0.00,,---,0.33,VWS V14.01,2013-04-19 09:13:00,
2013-04-19 04:18:00,48.8,46.9,29.91,NNW,338,2.7,2.7,93,0.00,,---,0.33,VWS V14.01,2013-04-19 09:18:00,
2013-04-19 04:23:00,48.8,47.2,29.91,WNW,292,1.3,1.3,94,0.00,,---,0.33,VWS V14.01,2013-04-19 09:23:00,
2013-04-19 04:28:00,48.7,46.5,29.91,West,270,4.3,4.3,92,0.00,,---,0.33,VWS V14.01,2013-04-19 09:28:00,
2013-04-19 04:33:00,48.7,46.5,29.91,NNW,338,2.7,3.6,92,0.00,,---,0.33,VWS V14.01,2013-04-19 09:33:00,
2013-04-19 04:38:00,48.7,46.5,29.91,NNW,338,6.0,6.0,92,0.00,,---,0.33,VWS V14.01,2013-04-19 09:38:00,
2013-04-19 04:43:00,48.5,45.7,29.94,NNW,338,2.7,3.6,90,0.00,,---,0.33,VWS V14.01,2013-04-19 09:43:00,
2013-04-19 04:48:00,48.5,46.0,29.94,NW,315,4.0,4.3,91,0.00,,---,0.33,VWS V14.01,2013-04-19 09:48:00,
2013-04-19 04:53:00,48.7,46.2,29.94,WNW,292,1.3,3.1,91,0.00,,---,0.33,VWS V14.01,2013-04-19 09:53:00,
2013-04-19 04:58:00,48.5,46.0,29.94,North,0,2.5,4.7,91,0.00,,---,0.33,VWS V14.01,2013-04-19 09:58:00,
2013-04-19 05:03:00,48.7,46.2,29.94,North,0,5.6,5.6,91,0.00,,---,0.33,VWS V14.01,2013-04-19 10:03:00,
2013-04-19 05:08:00,48.5,46.0,29.94,WNW,292,2.5,4.3,91,0.00,,---,0.33,VWS V14.01,2013-04-19 10:08:00,
2013-04-19 05:13:00,48.5,46.0,29.94,NNW,338,6.0,6.0,91,0.00,,---,0.33,VWS V14.01,2013-04-19 10:13:00,
2013-04-19 05:18:00,48.3,45.8,29.94,WNW,292,6.0,7.6,91,0.00,,---,0.33,VWS V14.01,2013-04-19 10:18:00,
2013-04-19 05:23:00,48.3,45.5,29.94,NNE,22,5.8,5.8,90,0.00,,---,0.33,VWS V14.01,2013-04-19 10:23:00,
2013-04-19 05:28:00,48.1,44.4,29.94,North,0,6.0,6.0,87,0.00,,---,0.33,VWS V14.01,2013-04-19 10:28:00,
2013-04-19 05:33:00,48.1,43.8,29.94,North,0,3.1,5.6,85,0.00,,---,0.33,VWS V14.01,2013-04-19 10:33:00,
2013-04-19 05:38:00,47.9,43.3,29.94,NW,315,0.0,0.0,84,0.00,,---,0.33,VWS V14.01,2013-04-19 10:38:00,
2013-04-19 05:43:00,47.9,44.0,29.94,NNW,338,0.9,2.2,86,0.00,,---,0.33,VWS V14.01,2013-04-19 10:43:00,
2013-04-19 05:48:00,47.9,43.7,29.94,WNW,292,2.7,2.7,85,0.00,,---,0.33,VWS V14.01,2013-04-19 10:48:00,
2013-04-19 05:53:00,47.8,43.8,29.94,NNW,338,2.5,4.7,86,0.00,,---,0.33,VWS V14.01,2013-04-19 10:53:00,
2013-04-19 05:58:00,47.8,43.8,29.94,WNW,292,2.7,6.3,86,0.00,,---,0.33,VWS V14.01,2013-04-19 10:58:00,
2013-04-19 06:03:00,47.6,43.0,29.94,NW,315,2.5,2.5,84,0.00,,---,0.33,VWS V14.01,2013-04-19 11:03:00,
2013-04-19 06:08:00,47.4,42.5,29.94,WNW,292,5.4,6.7,83,0.00,,---,0.33,VWS V14.01,2013-04-19 11:08:00,
2013-04-19 06:13:00,47.4,42.2,29.97,WNW,292,3.6,4.7,82,0.00,,---,0.33,VWS V14.01,2013-04-19 11:13:00,
2013-04-19 06:18:00,47.2,42.3,29.97,WNW,292,3.1,4.3,83,0.00,,---,0.33,VWS V14.01,2013-04-19 11:18:00,
2013-04-19 06:23:00,47.2,42.3,29.97,NNW,338,3.1,4.9,83,0.00,,---,0.33,VWS V14.01,2013-04-19 11:23:00,
2013-04-19 06:28:00,47.0,42.2,29.97,WNW,292,6.3,6.3,83,0.00,,---,0.33,VWS V14.01,2013-04-19 11:28:00,
2013-04-19 06:33:00,47.0,42.2,29.97,WNW,292,4.0,5.8,83,0.00,,---,0.33,VWS V14.01,2013-04-19 11:33:00,
2013-04-19 06:38:00,47.0,42.2,29.97,NNW,338,5.6,5.6,83,0.00,,---,0.33,VWS V14.01,2013-04-19 11:38:00,
2013-04-19 06:43:00,46.9,42.0,29.97,NW,315,4.3,4.3,83,0.00,,---,0.33,VWS V14.01,2013-04-19 11:43:00,
2013-04-19 06:48:00,46.9,42.0,29.97,North,0,3.6,4.3,83,0.00,,---,0.33,VWS V14.01,2013-04-19 11:48:00,
2013-04-19 06:53:00,46.9,42.0,29.97,NNW,338,1.6,1.6,83,0.00,,---,0.33,VWS V14.01,2013-04-19 11:53:00,
2013-04-19 06:58:00,46.7,41.2,29.97,WNW,292,3.1,3.1,81,0.00,,---,0.33,VWS V14.01,2013-04-19 11:58:00,
2013-04-19 07:03:00,46.7,41.5,29.97,NNW,338,3.6,3.6,82,0.00,,---,0.33,VWS V14.01,2013-04-19 12:03:00,
2013-04-19 07:08:00,46.7,41.5,29.97,NNW,338,4.0,4.0,82,0.00,,---,0.33,VWS V14.01,2013-04-19 12:08:00,
2013-04-19 07:13:00,46.5,40.7,29.97,NW,315,5.6,9.6,80,0.00,,---,0.33,VWS V14.01,2013-04-19 12:13:00,
2013-04-19 07:18:00,46.3,39.5,29.97,WNW,292,2.9,4.0,77,0.00,,---,0.33,VWS V14.01,2013-04-19 12:18:00,
2013-04-19 07:23:00,46.3,39.5,29.97,NNW,338,2.9,3.4,77,0.00,,---,0.33,VWS V14.01,2013-04-19 12:23:00,
2013-04-19 07:28:00,46.3,39.5,30.00,ENE,68,4.3,4.3,77,0.00,,---,0.33,VWS V14.01,2013-04-19 12:28:00,
2013-04-19 07:33:00,46.3,39.5,30.00,NNW,338,5.8,5.8,77,0.00,,---,0.33,VWS V14.01,2013-04-19 12:33:00,
2013-04-19 07:38:00,46.5,40.0,30.00,NW,315,0.0,1.1,78,0.00,,---,0.33,VWS V14.01,2013-04-19 12:38:00,
2013-04-19 07:43:00,46.5,40.0,30.00,WNW,292,2.5,2.5,78,0.00,,---,0.33,VWS V14.01,2013-04-19 12:43:00,
2013-04-19 07:48:00,46.5,39.7,30.00,NNW,338,4.3,5.4,77,0.00,,---,0.33,VWS V14.01,2013-04-19 12:48:00,
2013-04-19 07:53:00,46.5,39.4,30.00,North,0,3.6,3.8,76,0.00,,---,0.33,VWS V14.01,2013-04-19 12:53:00,
2013-04-19 07:58:00,46.9,39.7,30.00,WNW,292,2.9,4.3,76,0.00,,---,0.33,VWS V14.01,2013-04-19 12:58:00,
2013-04-19 08:03:00,47.4,40.2,30.00,WSW,248,2.2,8.1,76,0.00,,---,0.33,VWS V14.01,2013-04-19 13:03:00,
2013-04-19 08:08:00,47.4,38.8,30.00,WNW,292,4.0,4.0,72,0.00,,---,0.33,VWS V14.01,2013-04-19 13:08:00,
2013-04-19 08:13:00,47.2,38.3,30.00,NNW,338,3.6,3.6,71,0.00,,---,0.33,VWS V14.01,2013-04-19 13:13:00,
2013-04-19 08:18:00,47.2,38.0,30.00,NNW,338,6.9,6.9,70,0.00,,---,0.33,VWS V14.01,2013-04-19 13:18:00,
2013-04-19 08:23:00,47.6,37.9,30.00,North,0,3.6,4.7,69,0.00,,---,0.33,VWS V14.01,2013-04-19 13:23:00,
2013-04-19 08:28:00,47.8,38.1,30.00,NW,315,4.9,6.0,69,0.00,,---,0.33,VWS V14.01,2013-04-19 13:28:00,
2013-04-19 08:33:00,47.9,37.9,30.00,WNW,292,3.6,3.6,68,0.00,,---,0.33,VWS V14.01,2013-04-19 13:33:00,
2013-04-19 08:38:00,48.5,36.9,30.00,WNW,292,6.0,6.3,64,0.00,,---,0.33,VWS V14.01,2013-04-19 13:38:00,
2013-04-19 08:43:00,48.5,36.9,30.00,NW,315,3.4,4.3,64,0.00,,---,0.33,VWS V14.01,2013-04-19 13:43:00,
2013-04-19 08:48:00,48.3,36.7,30.00,WNW,292,2.0,5.4,64,0.00,,---,0.33,VWS V14.01,2013-04-19 13:48:00,
2013-04-19 08:53:00,47.9,35.6,30.00,NNW,338,2.7,4.3,62,0.00,,---,0.33,VWS V14.01,2013-04-19 13:53:00,
2013-04-19 08:58:00,48.1,36.9,30.06,NNW,338,2.0,3.8,65,0.00,,---,0.33,VWS V14.01,2013-04-19 13:58:00,
2013-04-19 09:03:00,47.9,36.8,30.06,NNW,338,4.3,4.3,65,0.00,,---,0.33,VWS V14.01,2013-04-19 14:03:00,
2013-04-19 09:08:00,47.6,36.0,30.06,NNW,338,6.5,6.5,64,0.00,,---,0.33,VWS V14.01,2013-04-19 14:08:00,
2013-04-19 09:13:00,47.4,36.6,30.03,NNW,338,7.4,7.4,66,0.00,,---,0.33,VWS V14.01,2013-04-19 14:13:00,
2013-04-19 09:18:00,47.4,37.4,30.03,NNW,338,2.5,3.8,68,0.00,,---,0.33,VWS V14.01,2013-04-19 14:18:00,
2013-04-19 09:23:00,47.4,37.0,30.03,NNW,338,4.9,5.6,67,0.00,,---,0.33,VWS V14.01,2013-04-19 14:23:00,
2013-04-19 09:28:00,47.4,37.8,30.00,ENE,68,2.7,8.7,69,0.00,,---,0.33,VWS V14.01,2013-04-19 14:28:00,
2013-04-19 09:33:00,47.6,37.6,30.00,NNW,338,5.4,5.4,68,0.00,,---,0.33,VWS V14.01,2013-04-19 14:33:00,
2013-04-19 09:38:00,47.8,38.1,30.00,NNW,338,2.5,2.7,69,0.00,,---,0.33,VWS V14.01,2013-04-19 14:38:00,
2013-04-19 09:43:00,47.9,38.3,30.03,North,0,3.6,3.6,69,0.00,,---,0.33,VWS V14.01,2013-04-19 14:43:00,
2013-04-19 09:48:00,48.1,38.4,30.03,NNE,22,4.3,4.3,69,0.00,,---,0.33,VWS V14.01,2013-04-19 14:48:00,
2013-04-19 09:53:00,48.7,39.0,30.03,NNW,338,1.6,2.0,69,0.00,,---,0.33,VWS V14.01,2013-04-19 14:53:00,
2013-04-19 09:58:00,49.2,38.7,30.06,North,0,1.6,3.8,67,0.00,,---,0.33,VWS V14.01,2013-04-19 14:58:00,
2013-04-19 10:03:00,49.2,38.0,30.06,NW,315,5.6,7.8,65,0.00,,---,0.33,VWS V14.01,2013-04-19 15:03:00,
2013-04-19 10:08:00,49.0,38.2,30.06,WNW,292,4.7,6.0,66,0.00,,---,0.33,VWS V14.01,2013-04-19 15:08:00,
2013-04-19 10:13:00,49.0,38.2,30.06,WNW,292,2.7,3.8,66,0.00,,---,0.33,VWS V14.01,2013-04-19 15:13:00,
2013-04-19 10:18:00,48.8,37.6,30.06,North,0,3.8,3.8,65,0.00,,---,0.33,VWS V14.01,2013-04-19 15:18:00,
2013-04-19 10:23:00,48.7,38.2,30.06,NW,315,2.7,4.9,67,0.00,,---,0.33,VWS V14.01,2013-04-19 15:23:00,
2013-04-19 10:29:00,48.8,38.8,30.03,WNW,292,0.0,1.1,68,0.00,,---,0.33,VWS V14.01,2013-04-19 15:29:00,
2013-04-19 10:34:00,48.8,39.1,30.03,WNW,292,3.1,3.8,69,0.00,,---,0.33,VWS V14.01,2013-04-19 15:34:00,
2013-04-19 10:39:00,48.8,39.1,30.03,NNE,22,1.1,3.8,69,0.00,,---,0.33,VWS V14.01,2013-04-19 15:39:00,
2013-04-19 10:44:00,48.8,39.1,30.06,NNW,338,0.0,0.0,69,0.00,,---,0.33,VWS V14.01,2013-04-19 15:44:00,
2013-04-19 10:49:00,49.2,38.7,30.06,NNW,338,2.7,5.6,67,0.00,,---,0.33,VWS V14.01,2013-04-19 15:49:00,
2013-04-19 10:54:00,49.7,40.0,30.06,NE,45,0.0,0.0,69,0.00,,---,0.33,VWS V14.01,2013-04-19 15:54:00,
2013-04-19 10:59:00,50.1,40.3,30.06,North,0,0.0,0.0,69,0.00,,---,0.33,VWS V14.01,2013-04-19 15:59:00,
2013-04-19 11:04:00,50.3,40.1,30.06,North,0,2.9,2.9,68,0.00,,---,0.33,VWS V14.01,2013-04-19 16:04:00,
2013-04-19 11:09:00,50.3,40.1,30.06,NNW,338,1.6,1.6,68,0.00,,---,0.33,VWS V14.01,2013-04-19 16:09:00,
2013-04-19 11:14:00,50.3,39.8,30.06,WNW,292,1.3,2.9,67,0.00,,---,0.33,VWS V14.01,2013-04-19 16:14:00,
2013-04-19 11:19:00,50.5,39.2,30.06,NNW,338,3.8,3.8,65,0.00,,---,0.33,VWS V14.01,2013-04-19 16:19:00,
2013-04-19 11:24:00,50.3,36.9,30.06,WNW,292,2.7,3.4,60,0.00,,---,0.33,VWS V14.01,2013-04-19 16:24:00,
2013-04-19 11:29:00,50.3,35.6,30.09,WNW,292,2.9,3.1,57,0.00,,---,0.33,VWS V14.01,2013-04-19 16:29:00,
2013-04-19 11:34:00,50.6,37.3,30.09,NNW,338,6.0,6.0,60,0.00,,---,0.33,VWS V14.01,2013-04-19 16:34:00,
2013-04-19 11:39:00,50.3,33.8,30.09,NNW,338,5.6,6.5,53,0.00,,---,0.33,VWS V14.01,2013-04-19 16:39:00,
2013-04-19 11:44:00,50.6,35.1,30.06,NW,315,3.1,3.1,55,0.00,,---,0.33,VWS V14.01,2013-04-19 16:44:00,
2013-04-19 11:49:00,51.2,34.7,30.06,NW,315,3.8,4.0,53,0.00,,---,0.33,VWS V14.01,2013-04-19 16:49:00,
2013-04-19 11:54:00,51.4,34.8,30.06,WNW,292,4.0,4.0,53,0.00,,---,0.33,VWS V14.01,2013-04-19 16:54:00,
2013-04-19 11:59:00,51.4,33.9,30.06,WNW,292,3.8,7.4,51,0.00,,---,0.33,VWS V14.01,2013-04-19 16:59:00,
2013-04-19 12:04:00,51.5,34.5,30.06,NE,45,2.2,3.4,52,0.00,,---,0.33,VWS V14.01,2013-04-19 17:04:00,
2013-04-19 12:09:00,51.7,35.6,30.06,NNW,338,4.9,4.9,54,0.00,,---,0.33,VWS V14.01,2013-04-19 17:09:00,
2013-04-19 12:14:00,51.7,34.7,30.06,North,0,2.2,3.1,52,0.00,,---,0.33,VWS V14.01,2013-04-19 17:14:00,
2013-04-19 12:19:00,51.7,34.7,30.06,NE,45,1.1,4.7,52,0.00,,---,0.33,VWS V14.01,2013-04-19 17:19:00,
2013-04-19 12:24:00,52.1,36.0,30.06,SSE,158,0.0,0.0,54,0.00,,---,0.33,VWS V14.01,2013-04-19 17:24:00,
2013-04-19 12:29:00,52.3,35.7,30.06,NNW,338,3.8,3.8,53,0.00,,---,0.33,VWS V14.01,2013-04-19 17:29:00,
2013-04-19 12:34:00,52.4,35.8,30.06,SSW,202,0.0,2.2,53,0.00,,---,0.33,VWS V14.01,2013-04-19 17:34:00,
2013-04-19 12:39:00,52.8,35.2,30.06,North,0,2.0,6.0,51,0.00,,---,0.33,VWS V14.01,2013-04-19 17:39:00,
2013-04-19 12:44:00,53.2,36.0,30.06,NNW,338,2.7,2.7,52,0.00,,---,0.33,VWS V14.01,2013-04-19 17:44:00,
2013-04-19 12:49:00,53.0,34.3,30.06,NNW,338,2.0,2.0,49,0.00,,---,0.33,VWS V14.01,2013-04-19 17:49:00,
2013-04-19 12:54:00,53.3,35.7,30.06,NNW,338,0.9,0.9,51,0.00,,---,0.33,VWS V14.01,2013-04-19 17:54:00,
2013-04-19 12:59:00,53.5,35.8,30.06,WNW,292,3.6,3.6,51,0.00,,---,0.33,VWS V14.01,2013-04-19 17:59:00,
2013-04-19 13:04:00,54.1,37.3,30.06,SSE,158,2.9,2.9,53,0.00,,---,0.33,VWS V14.01,2013-04-19 18:04:00,
2013-04-19 13:09:00,55.3,38.5,30.06,NNW,338,3.1,3.1,53,0.00,,---,0.33,VWS V14.01,2013-04-19 18:09:00,
2013-04-19 13:14:00,55.9,38.5,30.06,NNW,338,2.5,2.5,52,0.00,,---,0.33,VWS V14.01,2013-04-19 18:14:00,
2013-04-19 13:19:00,56.0,37.7,30.06,WSW,248,0.0,0.0,50,0.00,,---,0.33,VWS V14.01,2013-04-19 18:19:00,
2013-04-19 13:24:00,55.7,37.3,30.06,WNW,292,0.0,0.0,50,0.00,,---,0.33,VWS V14.01,2013-04-19 18:24:00,
2013-04-19 13:29:00,56.0,37.2,30.03,North,0,5.6,5.6,49,0.00,,---,0.33,VWS V14.01,2013-04-19 18:29:00,
2013-04-19 13:34:00,56.0,35.6,30.03,NW,315,2.5,3.8,46,0.00,,---,0.33,VWS V14.01,2013-04-19 18:34:00,
2013-04-19 13:39:00,55.7,36.3,30.03,NNW,338,3.6,3.6,48,0.00,,---,0.33,VWS V14.01,2013-04-19 18:39:00,
2013-04-19 13:44:00,56.0,36.6,30.03,NNW,338,2.7,3.4,48,0.00,,---,0.33,VWS V14.01,2013-04-19 18:44:00,
2013-04-19 13:49:00,57.1,37.6,30.03,WNW,292,2.2,4.3,48,0.00,,---,0.33,VWS V14.01,2013-04-19 18:49:00,
2013-04-19 13:54:00,57.3,37.8,30.03,NW,315,1.1,1.1,48,0.00,,---,0.33,VWS V14.01,2013-04-19 18:54:00,
2013-04-19 13:59:00,56.9,35.8,30.03,NNW,338,2.5,3.4,45,0.00,,---,0.33,VWS V14.01,2013-04-19 18:59:00,
2013-04-19 14:04:00,57.7,36.5,30.03,ESE,112,0.9,1.6,45,0.00,,---,0.33,VWS V14.01,2013-04-19 19:04:00,
2013-04-19 14:09:00,56.9,34.1,30.03,North,0,2.7,5.8,42,0.00,,---,0.33,VWS V14.01,2013-04-19 19:09:00,
2013-04-19 14:14:00,58.4,37.1,30.03,NNW,338,0.0,2.0,45,0.00,,---,0.33,VWS V14.01,2013-04-19 19:14:00,
2013-04-19 14:19:00,59.5,37.0,30.03,NW,315,3.8,4.9,43,0.00,,---,0.33,VWS V14.01,2013-04-19 19:19:00,
2013-04-19 14:24:00,59.1,34.2,30.03,WSW,248,2.9,2.9,39,0.00,,---,0.33,VWS V14.01,2013-04-19 19:24:00,
2013-04-19 14:29:00,58.6,34.3,30.03,WSW,248,1.6,4.0,40,0.00,,---,0.33,VWS V14.01,2013-04-19 19:29:00,
2013-04-19 14:34:00,59.6,37.7,30.03,NW,315,5.4,5.4,44,0.00,,---,0.33,VWS V14.01,2013-04-19 19:34:00,
2013-04-19 14:39:00,59.5,33.9,30.03,NNW,338,4.7,4.7,38,0.00,,---,0.33,VWS V14.01,2013-04-19 19:39:00,
2013-04-19 14:44:00,59.8,35.5,30.00,NW,315,1.3,2.9,40,0.00,,---,0.33,VWS V14.01,2013-04-19 19:44:00,
2013-04-19 14:49:00,60.4,34.7,30.00,NNW,338,2.9,5.4,38,0.00,,---,0.33,VWS V14.01,2013-04-19 19:49:00,
2013-04-19 14:54:00,60.4,33.3,30.00,SSW,202,2.5,5.4,36,0.00,,---,0.33,VWS V14.01,2013-04-19 19:54:00,
2013-04-19 14:59:00,59.1,32.2,30.03,WNW,292,6.0,9.4,36,0.00,,---,0.33,VWS V14.01,2013-04-19 19:59:00,
2013-04-19 15:04:00,59.1,32.9,30.03,NNW,338,4.9,7.2,37,0.00,,---,0.33,VWS V14.01,2013-04-19 20:04:00,
2013-04-19 15:09:00,59.1,32.9,30.03,WNW,292,6.3,6.3,37,0.00,,---,0.33,VWS V14.01,2013-04-19 20:09:00,
2013-04-19 15:14:00,59.5,33.9,30.03,NNE,22,2.0,2.5,38,0.00,,---,0.33,VWS V14.01,2013-04-19 20:14:00,
2013-04-19 15:19:00,59.5,33.9,30.03,NNW,338,3.4,5.4,38,0.00,,---,0.33,VWS V14.01,2013-04-19 20:19:00,
2013-04-19 15:24:00,59.8,34.2,30.03,WNW,292,3.1,3.1,38,0.00,,---,0.33,VWS V14.01,2013-04-19 20:24:00,
2013-04-19 15:29:00,60.4,36.0,30.03,NW,315,11.0,11.0,40,0.00,,---,0.33,VWS V14.01,2013-04-19 20:29:00,
2013-04-19 15:34:00,59.8,34.2,30.03,North,0,3.8,3.8,38,0.00,,---,0.33,VWS V14.01,2013-04-19 20:34:00,
2013-04-19 15:39:00,59.5,33.2,30.03,NNW,338,4.7,8.5,37,0.00,,---,0.33,VWS V14.01,2013-04-19 20:39:00,
2013-04-19 15:44:00,59.1,33.5,30.03,NW,315,3.8,3.8,38,0.00,,---,0.33,VWS V14.01,2013-04-19 20:44:00,
2013-04-19 15:49:00,58.4,32.9,30.03,NNW,338,4.3,6.0,38,0.00,,---,0.33,VWS V14.01,2013-04-19 20:49:00,
2013-04-19 15:54:00,58.9,34.7,30.03,NW,315,7.4,7.4,40,0.00,,---,0.33,VWS V14.01,2013-04-19 20:54:00,
2013-04-19 15:59:00,59.6,34.7,30.03,West,270,4.9,4.9,39,0.00,,---,0.33,VWS V14.01,2013-04-19 20:59:00,
2013-04-19 16:04:00,59.5,34.5,30.03,NNW,338,4.3,8.5,39,0.00,,---,0.33,VWS V14.01,2013-04-19 21:04:00,
2013-04-19 16:09:00,58.6,33.1,30.03,NW,315,2.2,7.8,38,0.00,,---,0.33,VWS V14.01,2013-04-19 21:09:00,
2013-04-19 16:14:00,58.9,34.0,30.03,NNW,338,5.4,5.4,39,0.00,,---,0.33,VWS V14.01,2013-04-19 21:14:00,
2013-04-19 16:19:00,58.2,32.7,30.03,NNW,338,7.4,7.4,38,0.00,,---,0.33,VWS V14.01,2013-04-19 21:19:00,
2013-04-19 16:25:00,58.4,33.5,30.03,WNW,292,3.6,3.6,39,0.00,,---,0.33,VWS V14.01,2013-04-19 21:25:00,
2013-04-19 16:30:00,59.1,34.2,30.03,NW,315,2.5,2.9,39,0.00,,---,0.33,VWS V14.01,2013-04-19 21:30:00,
2013-04-19 16:35:00,59.8,34.8,30.03,WNW,292,3.8,4.3,39,0.00,,---,0.33,VWS V14.01,2013-04-19 21:35:00,
2013-04-19 16:40:00,59.6,34.0,30.03,ESE,112,3.8,3.8,38,0.00,,---,0.33,VWS V14.01,2013-04-19 21:40:00,
2013-04-19 16:45:00,60.2,35.2,30.03,WNW,292,0.0,2.7,39,0.00,,---,0.33,VWS V14.01,2013-04-19 21:45:00,
2013-04-19 16:50:00,59.8,34.2,30.03,WNW,292,3.1,5.6,38,0.00,,---,0.33,VWS V14.01,2013-04-19 21:50:00,
2013-04-19 16:55:00,59.5,33.2,30.03,North,0,2.7,3.4,37,0.00,,---,0.33,VWS V14.01,2013-04-19 21:55:00,
2013-04-19 17:00:00,59.3,33.7,30.03,NNW,338,1.3,3.1,38,0.00,,---,0.33,VWS V14.01,2013-04-19 22:00:00,
2013-04-19 17:05:00,59.3,33.0,30.03,WNW,292,8.7,8.7,37,0.00,,---,0.33,VWS V14.01,2013-04-19 22:05:00,
2013-04-19 17:10:00,59.3,34.3,30.03,North,0,2.5,5.8,39,0.00,,---,0.33,VWS V14.01,2013-04-19 22:10:00,
2013-04-19 17:15:00,59.1,33.5,30.03,North,0,1.1,3.6,38,0.00,,---,0.33,VWS V14.01,2013-04-19 22:15:00,
2013-04-19 17:20:00,58.9,33.4,30.03,West,270,2.5,3.8,38,0.00,,---,0.33,VWS V14.01,2013-04-19 22:20:00,
2013-04-19 17:25:00,58.7,33.2,30.03,NW,315,0.9,4.0,38,0.00,,---,0.33,VWS V14.01,2013-04-19 22:25:00,
2013-04-19 17:30:00,58.6,33.1,30.03,NE,45,0.0,0.9,38,0.00,,---,0.33,VWS V14.01,2013-04-19 22:30:00,
2013-04-19 17:35:00,58.4,33.5,30.03,NNW,338,2.5,3.1,39,0.00,,---,0.33,VWS V14.01,2013-04-19 22:35:00,
2013-04-19 17:40:00,57.8,33.1,30.03,North,0,6.3,6.3,39,0.00,,---,0.33,VWS V14.01,2013-04-19 22:40:00,
2013-04-19 17:45:00,57.7,32.9,30.03,NNW,338,4.7,6.3,39,0.00,,---,0.33,VWS V14.01,2013-04-19 22:45:00,
2013-04-19 17:50:00,57.5,34.0,30.03,NNW,338,1.6,1.6,41,0.00,,---,0.33,VWS V14.01,2013-04-19 22:50:00,
2013-04-19 17:55:00,57.3,33.2,30.03,NNE,22,0.0,2.5,40,0.00,,---,0.33,VWS V14.01,2013-04-19 22:55:00,
2013-04-19 18:00:00,57.3,33.2,30.03,NNW,338,2.5,5.8,40,0.00,,---,0.33,VWS V14.01,2013-04-19 23:00:00,
2013-04-19 18:05:00,56.9,32.9,30.03,WNW,292,4.9,4.9,40,0.00,,---,0.33,VWS V14.01,2013-04-19 23:05:00,
2013-04-19 18:10:00,56.8,33.3,30.03,NNE,22,6.5,6.5,41,0.00,,---,0.33,VWS V14.01,2013-04-19 23:10:00,
2013-04-19 18:15:00,56.4,32.4,30.03,NNW,338,5.8,7.8,40,0.00,,---,0.33,VWS V14.01,2013-04-19 23:15:00,
2013-04-19 18:20:00,56.2,33.5,30.03,WNW,292,3.8,3.8,42,0.00,,---,0.33,VWS V14.01,2013-04-19 23:20:00,
2013-04-19 18:25:00,56.0,33.9,30.03,NW,315,3.1,3.4,43,0.00,,---,0.33,VWS V14.01,2013-04-19 23:25:00,
2013-04-19 18:30:00,55.9,33.7,30.03,WNW,292,0.0,0.9,43,0.00,,---,0.33,VWS V14.01,2013-04-19 23:30:00,
2013-04-19 18:35:00,55.7,34.7,30.03,NNW,338,0.0,3.4,45,0.00,,---,0.33,VWS V14.01,2013-04-19 23:35:00,
2013-04-19 18:40:00,55.5,35.1,30.03,NNW,338,4.7,4.9,46,0.00,,---,0.33,VWS V14.01,2013-04-19 23:40:00,
2013-04-19 18:45:00,55.3,34.9,30.03,WNW,292,2.9,2.9,46,0.00,,---,0.33,VWS V14.01,2013-04-19 23:45:00,
2013-04-19 18:50:00,55.1,34.8,30.03,North,0,3.1,3.1,46,0.00,,---,0.33,VWS V14.01,2013-04-19 23:50:00,
2013-04-19 18:55:00,55.0,34.6,30.03,WNW,292,1.3,1.3,46,0.00,,---,0.33,VWS V14.01,2013-04-19 23:55:00,
2013-04-19 19:00:00,54.4,35.2,30.03,NW,315,1.6,1.6,48,0.00,,---,0.33,VWS V14.01,2013-04-20 00:00:00,
2013-04-19 19:05:00,54.1,34.8,30.03,WNW,292,1.3,2.7,48,0.00,,---,0.33,VWS V14.01,2013-04-20 00:05:00,
2013-04-19 19:10:00,53.9,35.2,30.03,NW,315,2.0,2.7,49,0.00,,---,0.33,VWS V14.01,2013-04-20 00:10:00,
2013-04-19 19:15:00,53.5,35.4,30.03,NW,315,0.0,0.0,50,0.00,,---,0.33,VWS V14.01,2013-04-20 00:15:00,
2013-04-19 19:20:00,53.2,36.0,30.03,West,270,0.0,0.0,52,0.00,,---,0.33,VWS V14.01,2013-04-20 00:20:00,
2013-04-19 19:25:00,52.8,36.2,30.03,SE,135,0.0,0.0,53,0.00,,---,0.33,VWS V14.01,2013-04-20 00:25:00,
2013-04-19 19:30:00,52.3,36.6,30.06,WSW,248,0.0,0.0,55,0.00,,---,0.33,VWS V14.01,2013-04-20 00:30:00,
2013-04-19 19:35:00,51.7,36.5,30.06,WSW,248,0.0,0.0,56,0.00,,---,0.33,VWS V14.01,2013-04-20 00:35:00,
2013-04-19 19:40:00,51.4,36.7,30.06,WSW,248,0.0,0.0,57,0.00,,---,0.33,VWS V14.01,2013-04-20 00:40:00,
2013-04-19 19:45:00,51.0,36.8,30.06,SSE,158,0.0,0.0,58,0.00,,---,0.33,VWS V14.01,2013-04-20 00:45:00,
2013-04-19 19:50:00,50.6,37.3,30.06,SSW,202,1.6,1.6,60,0.00,,---,0.33,VWS V14.01,2013-04-20 00:50:00,
2013-04-19 19:55:00,50.1,37.2,30.06,NW,315,0.0,0.0,61,0.00,,---,0.33,VWS V14.01,2013-04-20 00:55:00,
2013-04-19 20:00:00,49.7,37.3,30.06,NW,315,0.0,0.0,62,0.00,,---,0.33,VWS V14.01,2013-04-20 01:00:00,
2013-04-19 20:05:00,49.4,38.1,30.06,NW,315,0.0,0.0,65,0.00,,---,0.33,VWS V14.01,2013-04-20 01:05:00,
2013-04-19 20:10:00,49.2,38.0,30.06,NW,315,0.0,0.0,65,0.00,,---,0.33,VWS V14.01,2013-04-20 01:10:00,
2013-04-19 20:15:00,48.8,38.0,30.06,NW,315,0.0,0.0,66,0.00,,---,0.33,VWS V14.01,2013-04-20 01:15:00,
2013-04-19 20:20:00,48.5,38.0,30.06,NW,315,0.0,0.0,67,0.00,,---,0.33,VWS V14.01,2013-04-20 01:20:00,
2013-04-19 20:25:00,48.3,38.2,30.06,NW,315,0.0,0.0,68,0.00,,---,0.33,VWS V14.01,2013-04-20 01:25:00,
2013-04-19 20:30:00,47.9,38.3,30.09,NW,315,0.0,0.0,69,0.00,,---,0.33,VWS V14.01,2013-04-20 01:30:00,
2013-04-19 20:35:00,47.8,38.1,30.09,NW,315,0.0,0.0,69,0.00,,---,0.33,VWS V14.01,2013-04-20 01:35:00,
2013-04-19 20:40:00,47.6,38.3,30.09,NW,315,0.0,0.0,70,0.00,,---,0.33,VWS V14.01,2013-04-20 01:40:00,
2013-04-19 20:45:00,47.4,38.5,30.09,NW,315,0.0,0.0,71,0.00,,---,0.33,VWS V14.01,2013-04-20 01:45:00,
2013-04-19 20:50:00,47.2,38.7,30.09,NNW,338,0.0,0.0,72,0.00,,---,0.33,VWS V14.01,2013-04-20 01:50:00,
2013-04-19 20:55:00,47.0,38.8,30.09,NNW,338,0.0,0.0,73,0.00,,---,0.33,VWS V14.01,2013-04-20 01:55:00,
2013-04-19 21:00:00,46.9,38.7,30.09,NNW,338,0.0,0.0,73,0.00,,---,0.33,VWS V14.01,2013-04-20 02:00:00,
2013-04-19 21:05:00,46.5,38.7,30.09,NNW,338,0.0,0.0,74,0.00,,---,0.33,VWS V14.01,2013-04-20 02:05:00,
2013-04-19 21:10:00,46.3,38.8,30.09,NNW,338,0.0,0.0,75,0.00,,---,0.33,VWS V14.01,2013-04-20 02:10:00,
2013-04-19 21:15:00,46.3,38.8,30.09,NNW,338,0.0,0.0,75,0.00,,---,0.33,VWS V14.01,2013-04-20 02:15:00,
2013-04-19 21:20:00,46.0,38.5,30.09,WNW,292,0.0,0.0,75,0.00,,---,0.33,VWS V14.01,2013-04-20 02:20:00,
2013-04-19 21:25:00,45.8,38.7,30.09,WNW,292,0.0,0.0,76,0.00,,---,0.33,VWS V14.01,2013-04-20 02:25:00,
2013-04-19 21:30:00,45.6,38.5,30.12,WNW,292,0.0,0.0,76,0.00,,---,0.33,VWS V14.01,2013-04-20 02:30:00,
2013-04-19 21:35:00,45.6,38.5,30.12,WNW,292,0.0,0.0,76,0.00,,---,0.33,VWS V14.01,2013-04-20 02:35:00,
2013-04-19 21:40:00,45.4,38.6,30.12,WNW,292,0.0,0.0,77,0.00,,---,0.33,VWS V14.01,2013-04-20 02:40:00,
2013-04-19 21:45:00,45.2,38.8,30.12,WNW,292,0.0,0.0,78,0.00,,---,0.33,VWS V14.01,2013-04-20 02:45:00,
2013-04-19 21:50:00,45.1,38.3,30.12,WNW,292,0.0,0.0,77,0.00,,---,0.33,VWS V14.01,2013-04-20 02:50:00,
2013-04-19 21:55:00,44.9,38.8,30.12,WNW,292,0.0,0.0,79,0.00,,---,0.33,VWS V14.01,2013-04-20 02:55:00,
2013-04-19 22:00:00,44.7,37.9,30.12,WNW,292,0.0,0.0,77,0.00,,---,0.33,VWS V14.01,2013-04-20 03:00:00,
2013-04-19 22:05:00,44.5,38.1,30.12,WNW,292,0.0,0.0,78,0.00,,---,0.33,VWS V14.01,2013-04-20 03:05:00,
2013-04-19 22:10:00,44.5,38.4,30.12,WNW,292,0.0,0.0,79,0.00,,---,0.33,VWS V14.01,2013-04-20 03:10:00,
2013-04-19 22:15:00,44.3,38.2,30.12,WNW,292,0.0,0.0,79,0.00,,---,0.33,VWS V14.01,2013-04-20 03:15:00,
2013-04-19 22:20:00,44.3,38.6,30.12,WNW,292,0.0,0.0,80,0.00,,---,0.33,VWS V14.01,2013-04-20 03:20:00,
2013-04-19 22:25:00,44.2,38.7,30.12,WNW,292,0.0,0.0,81,0.00,,---,0.33,VWS V14.01,2013-04-20 03:25:00,
2013-04-19 22:30:00,44.2,38.7,30.12,WNW,292,0.0,0.0,81,0.00,,---,0.33,VWS V14.01,2013-04-20 03:30:00,
2013-04-19 22:35:00,44.0,38.2,30.12,WNW,292,0.0,0.0,80,0.00,,---,0.33,VWS V14.01,2013-04-20 03:35:00,
2013-04-19 22:40:00,43.8,38.0,30.12,WNW,292,0.0,0.0,80,0.00,,---,0.33,VWS V14.01,2013-04-20 03:40:00,
2013-04-19 22:45:00,43.6,38.2,30.12,WNW,292,0.0,0.0,81,0.00,,---,0.33,VWS V14.01,2013-04-20 03:45:00,
2013-04-19 22:50:00,43.4,38.3,30.12,WNW,292,0.0,0.0,82,0.00,,---,0.33,VWS V14.01,2013-04-20 03:50:00,
2013-04-19 22:55:00,43.4,38.3,30.12,WNW,292,0.0,0.0,82,0.00,,---,0.33,VWS V14.01,2013-04-20 03:55:00,
2013-04-19 23:00:00,43.3,38.1,30.12,WNW,292,0.0,0.0,82,0.00,,---,0.33,VWS V14.01,2013-04-20 04:00:00,
2013-04-19 23:01:00,43.3,38.1,30.12,WNW,292,0.0,0.0,82,0.00,,---,0.33,VWS V14.01,2013-04-20 04:01:00,
2013-04-19 23:06:00,43.3,38.1,30.12,WNW,292,0.0,0.0,82,0.00,,---,0.33,VWS V14.01,2013-04-20 04:06:00,
2013-04-19 23:11:00,43.1,38.0,30.12,WNW,292,0.0,0.0,82,0.00,,---,0.33,VWS V14.01,2013-04-20 04:11:00,
2013-04-19 23:16:00,43.1,38.3,30.12,WNW,292,0.0,0.0,83,0.00,,---,0.33,VWS V14.01,2013-04-20 04:16:00,
2013-04-19 23:21:00,43.1,38.3,30.12,WNW,292,0.0,0.0,83,0.00,,---,0.33,VWS V14.01,2013-04-20 04:21:00,
2013-04-19 23:26:00,42.9,38.1,30.12,WNW,292,0.0,0.0,83,0.00,,---,0.33,VWS V14.01,2013-04-20 04:26:00,
2013-04-19 23:31:00,42.7,37.9,30.12,WNW,292,0.0,0.0,83,0.00,,---,0.33,VWS V14.01,2013-04-20 04:31:00,
2013-04-19 23:36:00,42.5,37.4,30.12,WNW,292,0.0,0.0,82,0.00,,---,0.33,VWS V14.01,2013-04-20 04:36:00,
2013-04-19 23:41:00,42.4,37.6,30.12,WNW,292,0.0,0.0,83,0.00,,---,0.33,VWS V14.01,2013-04-20 04:41:00,
2013-04-19 23:46:00,42.4,37.6,30.12,WNW,292,0.0,0.0,83,0.00,,---,0.33,VWS V14.01,2013-04-20 04:46:00,
2013-04-19 23:51:00,42.2,37.4,30.12,WNW,292,0.0,0.0,83,0.00,,---,0.33,VWS V14.01,2013-04-20 04:51:00,
2013-04-19 23:56:00,42.2,37.4,30.12,WNW,292,0.0,0.0,83,0.00,,---,0.33,VWS V14.01,2013-04-20 04:56:00,